Time;durP1;ratioP1;P1;durP2;ratioP2;P2;SDS_P1;SDS_P2;PMS_P1;PMS_P2;Temp;Humidity;BMP_temperature;BMP_pressure;BME280_temperature;BME280_humidity;BME280_pressure;Samples;Min_cycle;Max_cycle;Signal;HPM_P1;HPM_P2
2024/02/17 00:02:04;;;;;;;7.38;4.00;;;;;;;;;;5036794;28;20018;-80
2024/02/17 00:04:30;;;;;;;7.60;3.88;;;;;;;;;;5036894;28;20014;-80
2024/02/17 00:06:56;;;;;;;8.18;3.90;;;;;;;;;;5036280;28;20045;-80
2024/02/17 00:09:22;;;;;;;6.50;4.03;;;;;;;;;;5037086;28;20010;-80
2024/02/17 00:11:49;;;;;;;9.30;4.32;;;;;;;;;;5036937;28;20033;-81
2024/02/17 00:14:15;;;;;;;8.30;4.35;;;;;;;;;;5036801;28;20010;-81
2024/02/17 00:16:41;;;;;;;8.27;4.45;;;;;;;;;;5036308;28;20086;-80
2024/02/17 00:19:08;;;;;;;9.45;4.80;;;;;;;;;;5036191;28;20041;-81
2024/02/17 00:21:34;;;;;;;5.47;3.80;;;;;;;;;;5035090;28;20018;-81
2024/02/17 00:24:00;;;;;;;8.32;4.72;;;;;;;;;;5031585;28;20038;-82
2024/02/17 00:26:26;;;;;;;6.97;4.25;;;;;;;;;;5047095;28;20038;-82
2024/02/17 00:28:52;;;;;;;4.55;3.38;;;;;;;;;;5020083;28;20389;-81
2024/02/17 00:31:18;;;;;;;3.97;3.25;;;;;;;;;;5029166;28;20089;-82
2024/02/17 00:33:44;;;;;;;3.50;2.80;;;;;;;;;;5018475;28;20094;-81
2024/02/17 00:36:11;;;;;;;3.67;2.70;;;;;;;;;;5020052;28;20057;-82
2024/02/17 00:38:37;;;;;;;5.00;2.80;;;;;;;;;;5020172;28;20081;-81
2024/02/17 00:41:06;;;;;;;5.15;3.42;;;;;;;;;;5019943;28;20527;-81
2024/02/17 00:43:32;;;;;;;5.35;3.20;;;;;;;;;;5020701;28;20025;-80
2024/02/17 00:45:58;;;;;;;6.82;3.92;;;;;;;;;;5023621;28;20034;-81
2024/02/17 00:48:26;;;;;;;5.97;3.85;;;;;;;;;;5044038;28;20038;-80
2024/02/17 00:50:52;;;;;;;4.57;3.33;;;;;;;;;;5045632;28;20006;-80
2024/02/17 00:53:18;;;;;;;3.90;2.78;;;;;;;;;;5034509;28;20034;-82
2024/02/17 00:55:44;;;;;;;4.43;2.72;;;;;;;;;;5031126;28;20037;-81
2024/02/17 00:58:10;;;;;;;6.57;2.85;;;;;;;;;;5032450;28;20070;-82
2024/02/17 01:00:36;;;;;;;3.95;2.95;;;;;;;;;;5047826;28;20025;-82
2024/02/17 01:03:03;;;;;;;4.07;3.08;;;;;;;;;;5033898;28;20043;-80
2024/02/17 01:05:29;;;;;;;4.60;2.40;;;;;;;;;;5048188;28;20045;-80
2024/02/17 01:07:55;;;;;;;2.83;2.47;;;;;;;;;;5035337;28;20034;-81
2024/02/17 01:10:21;;;;;;;2.80;2.08;;;;;;;;;;5031976;28;20038;-82
2024/02/17 01:12:47;;;;;;;2.47;1.73;;;;;;;;;;5038805;28;20231;-82
2024/02/17 01:15:14;;;;;;;3.35;2.28;;;;;;;;;;5034534;28;20036;-81
2024/02/17 01:17:40;;;;;;;2.45;1.80;;;;;;;;;;5024181;28;20045;-81
2024/02/17 01:20:06;;;;;;;2.25;1.90;;;;;;;;;;5039673;28;20049;-81
2024/02/17 01:22:32;;;;;;;1.60;1.50;;;;;;;;;;5030516;28;20068;-81
2024/02/17 01:24:58;;;;;;;2.50;2.13;;;;;;;;;;5049233;28;20120;-81
2024/02/17 01:27:24;;;;;;;3.80;2.47;;;;;;;;;;5060777;28;20028;-81
2024/02/17 01:29:51;;;;;;;3.97;2.30;;;;;;;;;;5052856;28;20050;-81
2024/02/17 01:32:17;;;;;;;3.72;2.70;;;;;;;;;;5044551;28;20026;-80
2024/02/17 01:34:43;;;;;;;5.55;2.40;;;;;;;;;;5049351;28;20021;-81
2024/02/17 01:37:09;;;;;;;2.75;2.08;;;;;;;;;;5050553;28;20061;-80
2024/02/17 01:39:35;;;;;;;1.85;1.67;;;;;;;;;;5062009;28;20021;-81
2024/02/17 01:42:01;;;;;;;3.17;2.15;;;;;;;;;;5044423;28;20026;-81
2024/02/17 01:44:27;;;;;;;5.00;2.92;;;;;;;;;;5036965;28;20022;-81
2024/02/17 01:46:54;;;;;;;6.00;3.22;;;;;;;;;;5032374;28;20057;-82
2024/02/17 01:49:20;;;;;;;4.78;3.55;;;;;;;;;;5030097;28;20018;-81
2024/02/17 01:51:47;;;;;;;5.72;3.10;;;;;;;;;;5026149;28;20033;-82
2024/02/17 01:54:13;;;;;;;4.10;2.90;;;;;;;;;;5026590;28;20093;-81
2024/02/17 01:56:40;;;;;;;4.45;3.08;;;;;;;;;;5037738;28;20034;-82
2024/02/17 01:59:06;;;;;;;2.47;2.28;;;;;;;;;;5037814;28;20030;-82
2024/02/17 02:01:33;;;;;;;5.68;3.00;;;;;;;;;;5033506;28;20064;-82
2024/02/17 02:03:59;;;;;;;4.15;3.30;;;;;;;;;;5029765;28;20025;-81
2024/02/17 02:06:26;;;;;;;5.07;3.25;;;;;;;;;;5027450;28;20033;-81
2024/02/17 02:08:52;;;;;;;5.47;3.60;;;;;;;;;;5043402;28;20021;-80
2024/02/17 02:11:19;;;;;;;6.40;4.05;;;;;;;;;;5037518;28;20014;-82
2024/02/17 02:13:45;;;;;;;5.18;3.30;;;;;;;;;;5032173;28;20087;-80
2024/02/17 02:16:11;;;;;;;5.00;3.30;;;;;;;;;;5055766;28;20041;-82
2024/02/17 02:18:38;;;;;;;5.32;3.80;;;;;;;;;;5037897;28;20053;-81
2024/02/17 02:21:04;;;;;;;4.05;3.33;;;;;;;;;;5041455;28;20403;-83
2024/02/17 02:23:30;;;;;;;4.50;3.38;;;;;;;;;;5030068;28;20086;-82
2024/02/17 02:25:57;;;;;;;3.35;3.00;;;;;;;;;;5030218;28;20101;-82
2024/02/17 02:28:23;;;;;;;4.35;2.60;;;;;;;;;;5028075;28;20031;-79
2024/02/17 02:30:50;;;;;;;3.78;2.67;;;;;;;;;;5038108;28;20040;-82
2024/02/17 02:33:17;;;;;;;3.00;2.70;;;;;;;;;;5049630;28;20105;-80
2024/02/17 02:35:43;;;;;;;3.53;2.97;;;;;;;;;;5042047;28;20129;-80
2024/02/17 02:38:09;;;;;;;3.80;3.40;;;;;;;;;;5066632;28;20024;-81
2024/02/17 02:40:35;;;;;;;3.55;3.25;;;;;;;;;;5047667;28;20077;-80
2024/02/17 02:43:01;;;;;;;2.50;2.33;;;;;;;;;;5064826;28;20093;-82
2024/02/17 02:45:27;;;;;;;3.15;2.85;;;;;;;;;;5044058;28;20022;-81
2024/02/17 02:47:53;;;;;;;4.25;3.45;;;;;;;;;;5037787;28;20057;-81
2024/02/17 02:50:19;;;;;;;6.70;4.20;;;;;;;;;;5038995;28;20026;-83
2024/02/17 02:52:46;;;;;;;5.90;3.65;;;;;;;;;;5040120;28;20048;-80
2024/02/17 02:55:12;;;;;;;6.97;5.03;;;;;;;;;;5041701;28;20028;-81
2024/02/17 02:57:38;;;;;;;6.32;4.15;;;;;;;;;;5052732;28;20026;-81
2024/02/17 03:00:04;;;;;;;4.30;3.67;;;;;;;;;;5045194;28;20033;-80
2024/02/17 03:02:30;;;;;;;4.50;3.53;;;;;;;;;;5041354;28;20073;-81
2024/02/17 03:04:57;;;;;;;4.22;3.53;;;;;;;;;;5055276;28;20102;-81
2024/02/17 03:07:23;;;;;;;5.05;3.10;;;;;;;;;;5038566;28;20025;-81
2024/02/17 03:09:49;;;;;;;5.18;4.10;;;;;;;;;;5041124;28;20121;-80
2024/02/17 03:12:15;;;;;;;3.90;3.45;;;;;;;;;;5037869;28;20029;-83
2024/02/17 03:14:42;;;;;;;4.10;3.20;;;;;;;;;;5051257;28;20018;-81
2024/02/17 03:17:08;;;;;;;4.68;3.40;;;;;;;;;;5056217;28;20044;-83
2024/02/17 03:19:34;;;;;;;6.10;3.47;;;;;;;;;;5033008;28;20210;-82
2024/02/17 03:22:01;;;;;;;5.22;3.60;;;;;;;;;;5038007;28;20045;-81
2024/02/17 03:24:27;;;;;;;3.25;2.95;;;;;;;;;;5029525;28;20064;-81
2024/02/17 03:26:53;;;;;;;4.63;3.25;;;;;;;;;;5052703;28;20048;-82
2024/02/17 03:29:19;;;;;;;6.05;3.25;;;;;;;;;;5042656;28;20021;-81
2024/02/17 03:31:48;;;;;;;4.32;3.58;;;;;;;;;;5020148;28;20026;-82
2024/02/17 03:34:14;;;;;;;4.57;3.33;;;;;;;;;;5027819;28;20092;-82
2024/02/17 03:36:40;;;;;;;3.55;3.17;;;;;;;;;;5042356;28;20022;-83
2024/02/17 03:39:08;;;;;;;2.42;2.20;;;;;;;;;;5040841;28;20060;-82
2024/02/17 03:41:37;;;;;;;2.72;2.40;;;;;;;;;;5022823;28;20020;-81
2024/02/17 03:44:04;;;;;;;3.28;2.53;;;;;;;;;;5035328;28;20030;-82
2024/02/17 03:46:30;;;;;;;2.90;2.40;;;;;;;;;;5031169;28;20064;-82
2024/02/17 03:48:56;;;;;;;4.78;2.88;;;;;;;;;;5033807;28;20037;-82
2024/02/17 03:51:23;;;;;;;3.05;2.75;;;;;;;;;;5031638;28;20041;-80
2024/02/17 03:53:49;;;;;;;7.90;5.13;;;;;;;;;;5031705;28;20025;-81
2024/02/17 03:56:15;;;;;;;5.25;3.95;;;;;;;;;;5032077;28;20034;-82
2024/02/17 03:58:41;;;;;;;3.78;3.22;;;;;;;;;;5046403;28;20053;-82
2024/02/17 04:01:08;;;;;;;4.07;2.97;;;;;;;;;;5043025;28;20056;-80
2024/02/17 04:03:34;;;;;;;3.13;2.58;;;;;;;;;;5060773;28;20026;-82
2024/02/17 04:06:03;;;;;;;3.03;2.72;;;;;;;;;;5037199;28;20068;-82
2024/02/17 04:08:29;;;;;;;4.10;3.20;;;;;;;;;;5034947;28;20009;-83
2024/02/17 04:10:57;;;;;;;3.22;2.80;;;;;;;;;;5033943;28;20072;-81
2024/02/17 04:13:24;;;;;;;2.75;2.55;;;;;;;;;;5036884;28;20380;-83
2024/02/17 04:15:50;;;;;;;4.13;3.13;;;;;;;;;;5051803;28;20022;-81
2024/02/17 04:18:16;;;;;;;5.35;3.60;;;;;;;;;;5037226;28;20105;-84
2024/02/17 04:20:42;;;;;;;4.97;3.47;;;;;;;;;;5052786;28;20025;-82
2024/02/17 04:23:09;;;;;;;6.03;4.75;;;;;;;;;;5038969;28;20030;-82
2024/02/17 04:25:38;;;;;;;5.57;4.53;;;;;;;;;;5043249;28;20097;-80
2024/02/17 04:28:06;;;;;;;8.25;4.63;;;;;;;;;;5042886;28;20014;-81
2024/02/17 04:30:32;;;;;;;7.65;5.15;;;;;;;;;;5039049;28;20520;-79
2024/02/17 04:32:58;;;;;;;9.75;5.25;;;;;;;;;;5042675;28;20040;-79
2024/02/17 04:35:25;;;;;;;5.15;4.60;;;;;;;;;;5065405;28;20009;-79
2024/02/17 04:37:51;;;;;;;5.00;4.13;;;;;;;;;;5046450;28;20040;-78
2024/02/17 04:40:17;;;;;;;6.25;4.57;;;;;;;;;;5030840;28;20019;-79
2024/02/17 04:42:43;;;;;;;7.85;4.78;;;;;;;;;;5021938;28;20028;-80
2024/02/17 04:45:10;;;;;;;5.43;4.13;;;;;;;;;;5023804;28;20029;-80
2024/02/17 04:47:36;;;;;;;5.90;4.60;;;;;;;;;;5027023;28;20022;-80
2024/02/17 04:50:03;;;;;;;6.13;4.90;;;;;;;;;;5025897;28;20033;-79
2024/02/17 04:52:29;;;;;;;5.10;4.50;;;;;;;;;;5030810;28;20013;-79
2024/02/17 04:54:55;;;;;;;5.65;4.10;;;;;;;;;;5031162;28;20063;-78
2024/02/17 04:57:21;;;;;;;5.38;4.50;;;;;;;;;;5041324;28;20076;-80
2024/02/17 04:59:47;;;;;;;4.10;3.70;;;;;;;;;;5020273;28;20022;-80
2024/02/17 05:02:13;;;;;;;5.60;4.43;;;;;;;;;;5024965;28;20052;-79
2024/02/17 05:04:39;;;;;;;6.68;5.57;;;;;;;;;;5021161;28;20026;-77
2024/02/17 05:07:06;;;;;;;5.85;5.25;;;;;;;;;;5018123;28;20026;-79
2024/02/17 05:09:32;;;;;;;4.95;4.03;;;;;;;;;;5015292;28;20385;-79
2024/02/17 05:11:58;;;;;;;7.32;5.82;;;;;;;;;;5016640;28;20010;-79
2024/02/17 05:14:26;;;;;;;9.73;7.00;;;;;;;;;;5013592;28;20026;-78
2024/02/17 05:16:52;;;;;;;7.53;6.43;;;;;;;;;;5031054;28;20026;-77
2024/02/17 05:19:18;;;;;;;7.30;6.53;;;;;;;;;;5011587;28;20370;-77
2024/02/17 05:21:44;;;;;;;6.45;5.55;;;;;;;;;;5006034;28;20432;-78
2024/02/17 05:24:11;;;;;;;9.15;6.78;;;;;;;;;;5010858;28;20029;-79
2024/02/17 05:26:39;;;;;;;7.03;6.28;;;;;;;;;;5025289;28;20018;-79
2024/02/17 05:29:08;;;;;;;8.50;6.72;;;;;;;;;;5013980;28;20098;-78
2024/02/17 05:31:35;;;;;;;6.78;6.07;;;;;;;;;;5015059;28;20023;-77
2024/02/17 05:34:02;;;;;;;6.38;5.75;;;;;;;;;;5014771;28;20492;-77
2024/02/17 05:36:29;;;;;;;7.07;5.90;;;;;;;;;;5013073;28;20029;-77
2024/02/17 05:38:58;;;;;;;6.78;5.05;;;;;;;;;;5014786;28;20435;-78
2024/02/17 05:41:25;;;;;;;8.05;5.85;;;;;;;;;;5035122;28;20113;-78
2024/02/17 05:43:52;;;;;;;5.82;4.70;;;;;;;;;;5018867;28;20026;-79
2024/02/17 05:46:19;;;;;;;5.20;4.70;;;;;;;;;;5019826;28;20053;-79
2024/02/17 05:48:45;;;;;;;7.30;5.47;;;;;;;;;;5019307;28;20025;-79
2024/02/17 05:51:11;;;;;;;5.43;4.90;;;;;;;;;;5036444;28;20025;-78
2024/02/17 05:53:37;;;;;;;4.72;4.32;;;;;;;;;;5017836;28;20014;-78
2024/02/17 05:56:03;;;;;;;4.85;4.25;;;;;;;;;;5020465;28;20030;-81
2024/02/17 05:58:30;;;;;;;5.20;3.95;;;;;;;;;;5019366;28;20025;-78
2024/02/17 06:01:00;;;;;;;4.40;4.00;;;;;;;;;;5025019;28;20026;-77
2024/02/17 06:03:26;;;;;;;5.05;3.47;;;;;;;;;;5020602;28;20022;-77
2024/02/17 06:05:53;;;;;;;10.88;6.53;;;;;;;;;;5017604;28;20358;-78
2024/02/17 06:08:20;;;;;;;5.88;4.97;;;;;;;;;;5019655;28;20018;-77
2024/02/17 06:10:46;;;;;;;5.53;4.93;;;;;;;;;;5032325;28;20046;-77
2024/02/17 06:13:12;;;;;;;6.45;5.72;;;;;;;;;;5020244;28;20113;-78
2024/02/17 06:15:42;;;;;;;6.47;5.43;;;;;;;;;;5016989;28;20476;-77
2024/02/17 06:21:13;;;;;;;7.30;4.90;;;;;;;;;;5017810;28;20053;-78
2024/02/17 06:23:41;;;;;;;5.28;4.78;;;;;;;;;;5031471;28;20022;-78
2024/02/17 06:26:08;;;;;;;5.38;4.88;;;;;;;;;;5017924;28;20037;-78
2024/02/17 06:28:34;;;;;;;5.20;4.70;;;;;;;;;;5042079;28;20022;-77
2024/02/17 06:31:00;;;;;;;6.10;5.22;;;;;;;;;;5025804;28;20018;-78
2024/02/17 06:33:31;;;;;;;7.53;4.90;;;;;;;;;;5016251;28;20018;-76
2024/02/17 06:35:57;;;;;;;6.47;4.88;;;;;;;;;;5015414;28;20018;-77
2024/02/17 06:38:23;;;;;;;8.73;5.78;;;;;;;;;;5017802;28;20415;-77
2024/02/17 06:40:49;;;;;;;6.28;5.28;;;;;;;;;;5015887;28;20041;-77
2024/02/17 06:43:17;;;;;;;5.30;4.70;;;;;;;;;;5032784;28;20022;-77
2024/02/17 06:45:43;;;;;;;6.00;5.05;;;;;;;;;;5017158;28;20022;-78
2024/02/17 06:48:11;;;;;;;5.70;4.85;;;;;;;;;;5025436;28;20090;-79
2024/02/17 06:50:37;;;;;;;6.30;5.70;;;;;;;;;;5023464;28;20067;-77
2024/02/17 06:53:03;;;;;;;6.30;5.70;;;;;;;;;;5038416;28;20026;-78
2024/02/17 06:55:29;;;;;;;7.40;6.55;;;;;;;;;;5042004;28;20014;-77
2024/02/17 06:57:55;;;;;;;6.45;5.57;;;;;;;;;;5029155;28;20052;-77
2024/02/17 07:00:23;;;;;;;5.43;4.15;;;;;;;;;;5016893;28;20037;-79
2024/02/17 07:02:49;;;;;;;5.53;4.78;;;;;;;;;;5019156;28;20026;-78
2024/02/17 07:05:15;;;;;;;6.60;5.20;;;;;;;;;;5034155;28;20022;-78
2024/02/17 07:07:42;;;;;;;5.10;4.60;;;;;;;;;;5018413;28;20045;-77
2024/02/17 07:10:08;;;;;;;5.68;5.18;;;;;;;;;;5017920;28;20093;-77
2024/02/17 07:12:34;;;;;;;7.35;6.65;;;;;;;;;;5026678;28;20390;-77
2024/02/17 07:15:01;;;;;;;6.80;5.68;;;;;;;;;;5006802;28;20061;-77
2024/02/17 07:17:27;;;;;;;7.07;6.13;;;;;;;;;;5017849;28;20102;-77
2024/02/17 07:19:53;;;;;;;8.70;6.38;;;;;;;;;;5019623;28;20026;-78
2024/02/17 07:22:19;;;;;;;5.63;5.13;;;;;;;;;;5019731;28;20022;-78
2024/02/17 07:24:45;;;;;;;6.20;5.60;;;;;;;;;;5024565;28;20028;-78
2024/02/17 07:27:11;;;;;;;7.13;6.43;;;;;;;;;;5015713;28;20018;-77
2024/02/17 07:29:39;;;;;;;6.60;5.22;;;;;;;;;;5030052;28;20046;-77
2024/02/17 07:32:05;;;;;;;4.93;4.53;;;;;;;;;;5033357;28;20018;-78
2024/02/17 07:34:32;;;;;;;7.90;5.40;;;;;;;;;;5031797;28;20037;-78
2024/02/17 07:36:58;;;;;;;6.80;5.25;;;;;;;;;;5017313;28;20082;-78
2024/02/17 07:39:25;;;;;;;5.85;5.28;;;;;;;;;;5023676;28;20029;-78
2024/02/17 07:41:54;;;;;;;6.60;5.95;;;;;;;;;;5022840;28;20022;-78
2024/02/17 07:44:23;;;;;;;7.43;6.43;;;;;;;;;;5030695;28;20025;-78
2024/02/17 07:46:49;;;;;;;8.05;6.05;;;;;;;;;;5027898;28;20121;-78
2024/02/17 07:49:17;;;;;;;7.25;5.82;;;;;;;;;;5018522;28;20357;-77
2024/02/17 07:51:44;;;;;;;6.55;5.93;;;;;;;;;;5018087;28;20045;-77
2024/02/17 07:54:11;;;;;;;7.65;6.50;;;;;;;;;;5029350;28;20022;-77
2024/02/17 07:56:37;;;;;;;10.07;7.00;;;;;;;;;;5017992;28;20037;-77
2024/02/17 07:59:03;;;;;;;8.73;7.30;;;;;;;;;;5018602;28;20026;-77
2024/02/17 08:01:29;;;;;;;8.55;7.20;;;;;;;;;;5018989;28;20030;-78
2024/02/17 08:03:56;;;;;;;11.23;7.78;;;;;;;;;;5022729;28;20033;-77
2024/02/17 08:06:23;;;;;;;8.70;7.70;;;;;;;;;;5020084;28;20025;-78
2024/02/17 08:08:49;;;;;;;9.55;6.85;;;;;;;;;;5022341;28;20018;-78
2024/02/17 08:11:15;;;;;;;9.85;7.35;;;;;;;;;;5024365;28;20417;-77
2024/02/17 08:13:42;;;;;;;10.05;7.75;;;;;;;;;;5019821;28;20014;-78
2024/02/17 08:16:08;;;;;;;11.88;8.45;;;;;;;;;;5022100;28;20042;-78
2024/02/17 08:18:34;;;;;;;10.80;7.22;;;;;;;;;;5029745;28;20028;-78
2024/02/17 08:21:02;;;;;;;9.60;7.60;;;;;;;;;;5037031;28;20040;-78
2024/02/17 08:23:28;;;;;;;11.10;9.07;;;;;;;;;;5027902;28;20094;-77
2024/02/17 08:25:58;;;;;;;10.98;8.95;;;;;;;;;;5028627;28;20022;-77
2024/02/17 08:28:25;;;;;;;11.40;8.48;;;;;;;;;;5028561;28;20013;-77
2024/02/17 08:30:51;;;;;;;12.32;8.48;;;;;;;;;;5019530;28;20026;-78
2024/02/17 08:33:17;;;;;;;11.88;8.27;;;;;;;;;;5033173;28;20036;-77
2024/02/17 08:35:45;;;;;;;10.10;7.22;;;;;;;;;;5031324;28;20493;-77
2024/02/17 08:38:11;;;;;;;10.05;7.78;;;;;;;;;;5020070;28;20022;-77
2024/02/17 08:40:37;;;;;;;12.30;8.65;;;;;;;;;;5016259;28;20022;-77
2024/02/17 08:43:04;;;;;;;11.35;7.70;;;;;;;;;;5023389;28;20532;-78
2024/02/17 08:45:31;;;;;;;13.05;8.52;;;;;;;;;;5018758;28;20397;-77
2024/02/17 08:47:57;;;;;;;13.90;8.18;;;;;;;;;;5022432;28;20034;-77
2024/02/17 08:50:23;;;;;;;10.25;7.60;;;;;;;;;;5024665;28;20033;-78
2024/02/17 08:52:50;;;;;;;9.32;6.85;;;;;;;;;;5038640;28;20018;-77
2024/02/17 08:55:16;;;;;;;8.35;6.40;;;;;;;;;;5020252;28;20026;-77
2024/02/17 08:57:42;;;;;;;10.20;7.18;;;;;;;;;;5018445;28;20028;-78
2024/02/17 09:00:09;;;;;;;10.38;6.93;;;;;;;;;;5032104;28;20018;-78
2024/02/17 09:02:35;;;;;;;9.15;6.82;;;;;;;;;;5027524;28;20094;-79
2024/02/17 09:05:03;;;;;;;9.23;6.43;;;;;;;;;;5024145;28;20025;-77
2024/02/17 09:07:29;;;;;;;8.43;5.80;;;;;;;;;;5017139;28;20038;-77
2024/02/17 09:09:56;;;;;;;10.13;6.82;;;;;;;;;;5019815;28;20026;-77
2024/02/17 09:12:22;;;;;;;14.18;6.93;;;;;;;;;;5023329;28;20037;-77
2024/02/17 09:14:48;;;;;;;10.85;7.53;;;;;;;;;;5023001;28;20029;-77
2024/02/17 09:17:16;;;;;;;9.57;7.15;;;;;;;;;;5025893;28;20081;-77
2024/02/17 09:19:42;;;;;;;10.60;7.53;;;;;;;;;;5028126;28;20097;-77
2024/02/17 09:22:08;;;;;;;12.05;8.80;;;;;;;;;;5026773;28;20096;-77
2024/02/17 09:24:34;;;;;;;12.15;8.63;;;;;;;;;;5028770;28;20064;-78
2024/02/17 09:27:01;;;;;;;11.75;8.75;;;;;;;;;;5032225;28;20032;-77
2024/02/17 09:29:27;;;;;;;11.65;8.25;;;;;;;;;;5045460;28;20022;-77
2024/02/17 09:31:53;;;;;;;12.98;9.52;;;;;;;;;;5029532;28;20034;-77
2024/02/17 09:34:19;;;;;;;13.65;8.30;;;;;;;;;;5033560;28;20030;-75
2024/02/17 09:36:47;;;;;;;14.20;9.00;;;;;;;;;;5026627;28;20037;-77
2024/02/17 09:39:13;;;;;;;12.88;9.07;;;;;;;;;;5026696;28;20045;-77
2024/02/17 09:41:40;;;;;;;12.35;8.65;;;;;;;;;;5039821;28;20025;-77
2024/02/17 09:44:07;;;;;;;15.88;9.60;;;;;;;;;;5023918;28;20041;-77
2024/02/17 09:46:33;;;;;;;17.92;10.55;;;;;;;;;;5033132;28;20280;-78
2024/02/17 09:48:59;;;;;;;15.73;10.45;;;;;;;;;;5024581;28;20630;-79
2024/02/17 09:51:26;;;;;;;14.55;9.65;;;;;;;;;;5021639;28;20018;-77
2024/02/17 09:53:53;;;;;;;14.90;9.73;;;;;;;;;;5029514;28;20045;-77
2024/02/17 09:56:21;;;;;;;14.23;9.00;;;;;;;;;;5019590;28;20018;-78
2024/02/17 09:58:47;;;;;;;16.80;9.32;;;;;;;;;;5020272;28;20026;-79
2024/02/17 10:01:13;;;;;;;15.57;9.88;;;;;;;;;;5021669;28;20469;-78
2024/02/17 10:03:40;;;;;;;14.95;9.63;;;;;;;;;;5037009;28;20026;-78
2024/02/17 10:06:13;;;;;;;18.13;10.60;;;;;;;;;;5019844;28;20022;-78
2024/02/17 10:08:40;;;;;;;20.70;11.13;;;;;;;;;;5020349;28;20030;-79
2024/02/17 10:11:09;;;;;;;14.70;9.85;;;;;;;;;;5029336;28;20089;-78
2024/02/17 10:13:36;;;;;;;17.63;10.68;;;;;;;;;;5020596;28;20101;-77
2024/02/17 10:16:02;;;;;;;16.27;9.73;;;;;;;;;;5020343;28;20021;-77
2024/02/17 10:18:31;;;;;;;16.35;10.25;;;;;;;;;;5028396;28;20029;-77
2024/02/17 10:20:57;;;;;;;15.93;10.52;;;;;;;;;;5020768;28;20492;-78
2024/02/17 10:23:29;;;;;;;16.08;10.57;;;;;;;;;;5025386;28;20482;-76
2024/02/17 10:25:57;;;;;;;17.48;11.52;;;;;;;;;;5039170;28;20026;-78
2024/02/17 10:28:27;;;;;;;15.30;10.23;;;;;;;;;;5027215;28;20429;-78
2024/02/17 10:30:55;;;;;;;17.10;9.50;;;;;;;;;;5040249;28;20030;-78
2024/02/17 10:33:21;;;;;;;14.95;10.40;;;;;;;;;;5024955;28;20010;-78
2024/02/17 10:35:48;;;;;;;15.45;9.27;;;;;;;;;;5020635;28;20034;-78
2024/02/17 10:38:14;;;;;;;14.75;10.13;;;;;;;;;;5022009;28;20033;-77
2024/02/17 10:40:40;;;;;;;16.05;10.63;;;;;;;;;;5019512;28;20033;-78
2024/02/17 10:43:06;;;;;;;13.90;9.40;;;;;;;;;;5019389;28;20084;-78
2024/02/17 10:45:33;;;;;;;13.50;8.70;;;;;;;;;;5022388;28;20022;-78
2024/02/17 10:48:12;;;;;;;15.68;10.38;;;;;;;;;;5020430;28;20046;-78
2024/02/17 10:50:45;;;;;;;13.38;8.80;;;;;;;;;;5035865;28;20029;-78
2024/02/17 10:53:23;;;;;;;13.93;9.45;;;;;;;;;;5023847;28;20020;-79
2024/02/17 10:55:53;;;;;;;13.98;9.60;;;;;;;;;;5026094;28;20045;-78
2024/02/17 10:58:23;;;;;;;11.32;8.32;;;;;;;;;;5020171;28;20496;-77
2024/02/17 11:00:49;;;;;;;12.20;8.52;;;;;;;;;;5024224;28;20026;-78
2024/02/17 11:03:18;;;;;;;14.75;9.32;;;;;;;;;;5043460;28;20022;-77
2024/02/17 11:05:45;;;;;;;12.27;8.63;;;;;;;;;;5028747;28;20036;-77
2024/02/17 11:08:12;;;;;;;11.25;7.95;;;;;;;;;;5051767;28;20018;-78
2024/02/17 11:10:41;;;;;;;12.40;8.38;;;;;;;;;;5023106;28;20024;-78
2024/02/17 11:13:20;;;;;;;13.35;10.05;;;;;;;;;;5000310;28;20022;-77
2024/02/17 11:16:07;;;;;;;12.23;8.38;;;;;;;;;;5029920;28;20037;-77
2024/02/17 11:18:37;;;;;;;11.75;7.80;;;;;;;;;;5018626;28;20402;-79
2024/02/17 11:21:07;;;;;;;10.25;7.22;;;;;;;;;;5020800;28;20109;-77
2024/02/17 11:23:38;;;;;;;8.73;5.97;;;;;;;;;;5019310;28;20029;-77
2024/02/17 11:26:08;;;;;;;9.55;7.10;;;;;;;;;;5027265;28;20492;-78
2024/02/17 11:28:34;;;;;;;7.43;6.07;;;;;;;;;;5019760;28;20377;-79
2024/02/17 11:31:06;;;;;;;11.23;6.18;;;;;;;;;;5018830;28;20112;-77
2024/02/17 11:33:33;;;;;;;8.18;6.03;;;;;;;;;;5024934;28;20022;-78
2024/02/17 11:36:03;;;;;;;8.20;6.60;;;;;;;;;;5041551;28;20037;-77
2024/02/17 11:38:30;;;;;;;7.35;5.63;;;;;;;;;;5024893;28;20052;-77
2024/02/17 11:41:00;;;;;;;8.40;6.57;;;;;;;;;;5025826;28;20030;-78
2024/02/17 11:43:30;;;;;;;8.45;6.15;;;;;;;;;;5030327;28;20026;-78
2024/02/17 11:45:56;;;;;;;7.70;6.22;;;;;;;;;;5032847;28;20064;-78
2024/02/17 11:48:23;;;;;;;10.57;6.72;;;;;;;;;;5035051;28;20018;-78
2024/02/17 11:50:49;;;;;;;9.38;5.97;;;;;;;;;;5020229;28;20026;-78
2024/02/17 11:53:15;;;;;;;9.05;6.35;;;;;;;;;;5022100;28;20037;-78
2024/02/17 11:55:41;;;;;;;8.18;5.95;;;;;;;;;;5026582;28;20049;-78
2024/02/17 11:58:09;;;;;;;9.30;6.85;;;;;;;;;;5034225;28;20442;-78
2024/02/17 12:00:47;;;;;;;8.75;6.57;;;;;;;;;;5037099;28;20089;-78
2024/02/17 12:03:14;;;;;;;8.75;6.97;;;;;;;;;;5020934;28;20125;-77
2024/02/17 12:05:41;;;;;;;11.65;7.00;;;;;;;;;;5035231;28;20022;-79
2024/02/17 12:08:08;;;;;;;8.43;6.00;;;;;;;;;;5020879;28;20022;-78
2024/02/17 12:10:34;;;;;;;5.85;5.00;;;;;;;;;;5038184;28;20026;-77
2024/02/17 12:13:01;;;;;;;9.40;7.13;;;;;;;;;;5023108;28;20018;-79
2024/02/17 12:15:27;;;;;;;9.55;6.57;;;;;;;;;;5026172;28;20032;-78
2024/02/17 12:17:54;;;;;;;7.78;5.45;;;;;;;;;;5022220;28;20237;-78
2024/02/17 12:20:20;;;;;;;6.97;5.68;;;;;;;;;;5024390;28;20065;-79
2024/02/17 12:22:51;;;;;;;11.93;6.53;;;;;;;;;;5025633;28;20059;-78
2024/02/17 12:25:18;;;;;;;6.85;5.45;;;;;;;;;;5016922;28;20381;-77
2024/02/17 12:27:46;;;;;;;6.03;4.78;;;;;;;;;;5016693;28;20018;-77
2024/02/17 12:30:17;;;;;;;9.82;7.38;;;;;;;;;;5017709;28;20032;-78
2024/02/17 12:32:44;;;;;;;10.50;7.32;;;;;;;;;;5017701;28;20037;-77
2024/02/17 12:35:14;;;;;;;8.32;6.82;;;;;;;;;;5018599;28;20022;-78
2024/02/17 12:37:40;;;;;;;6.03;5.05;;;;;;;;;;5032383;28;20022;-78
2024/02/17 12:40:10;;;;;;;7.05;4.72;;;;;;;;;;5019454;28;20300;-78
2024/02/17 12:42:36;;;;;;;7.55;6.40;;;;;;;;;;5017777;28;20048;-77
2024/02/17 12:45:03;;;;;;;7.82;6.30;;;;;;;;;;5014810;28;20034;-77
2024/02/17 12:47:30;;;;;;;7.10;5.70;;;;;;;;;;5019652;28;20500;-78
2024/02/17 12:49:56;;;;;;;7.60;6.05;;;;;;;;;;5023579;28;20037;-78
2024/02/17 12:52:22;;;;;;;5.22;4.63;;;;;;;;;;5038608;28;20030;-77
2024/02/17 12:54:48;;;;;;;6.05;4.95;;;;;;;;;;5029537;28;20085;-78
2024/02/17 12:57:14;;;;;;;6.65;5.20;;;;;;;;;;5028813;28;20022;-77
2024/02/17 12:59:40;;;;;;;6.55;5.68;;;;;;;;;;5033903;28;20037;-78
2024/02/17 13:02:06;;;;;;;6.88;5.68;;;;;;;;;;5042129;28;20042;-76
2024/02/17 13:04:32;;;;;;;7.80;5.45;;;;;;;;;;5049849;28;20024;-76
2024/02/17 13:06:59;;;;;;;6.68;5.13;;;;;;;;;;5041453;28;20022;-76
2024/02/17 13:09:25;;;;;;;7.78;6.18;;;;;;;;;;5042115;28;20097;-77
2024/02/17 13:11:51;;;;;;;9.38;6.05;;;;;;;;;;5040924;28;20026;-76
2024/02/17 13:14:17;;;;;;;5.93;5.32;;;;;;;;;;5039248;28;20018;-77
2024/02/17 13:16:43;;;;;;;7.22;4.72;;;;;;;;;;5033256;28;20092;-78
2024/02/17 13:19:09;;;;;;;8.52;5.13;;;;;;;;;;5029988;28;20049;-77
2024/02/17 13:21:35;;;;;;;5.03;4.25;;;;;;;;;;5043041;28;20030;-77
2024/02/17 13:24:03;;;;;;;4.85;3.58;;;;;;;;;;5043112;28;20041;-77
2024/02/17 13:26:29;;;;;;;5.35;3.75;;;;;;;;;;5042466;28;20021;-78
2024/02/17 13:28:56;;;;;;;5.90;4.90;;;;;;;;;;5042895;28;20018;-76
2024/02/17 13:31:22;;;;;;;6.45;5.38;;;;;;;;;;5043047;28;20034;-76
2024/02/17 13:33:48;;;;;;;6.78;6.05;;;;;;;;;;5042929;28;20032;-76
2024/02/17 13:36:14;;;;;;;8.07;5.72;;;;;;;;;;5042282;28;20014;-77
2024/02/17 13:38:40;;;;;;;8.10;5.50;;;;;;;;;;5042931;28;20017;-77
2024/02/17 13:41:06;;;;;;;6.32;5.40;;;;;;;;;;5042764;28;20042;-77
2024/02/17 13:43:33;;;;;;;6.55;4.93;;;;;;;;;;5042718;28;20030;-76
2024/02/17 13:46:00;;;;;;;4.28;3.53;;;;;;;;;;5042283;28;20030;-77
2024/02/17 13:48:26;;;;;;;5.07;4.53;;;;;;;;;;5042802;28;20045;-78
2024/02/17 13:50:52;;;;;;;4.88;3.78;;;;;;;;;;5034458;28;20034;-77
2024/02/17 13:53:19;;;;;;;4.28;3.67;;;;;;;;;;5026605;28;20026;-77
2024/02/17 13:55:45;;;;;;;9.80;5.57;;;;;;;;;;5040486;28;20038;-77
2024/02/17 13:58:12;;;;;;;5.90;5.30;;;;;;;;;;5030371;28;20018;-77
2024/02/17 14:00:38;;;;;;;27.60;6.53;;;;;;;;;;5032636;28;20021;-78
2024/02/17 14:03:05;;;;;;;9.35;4.97;;;;;;;;;;5022874;28;20026;-77
2024/02/17 14:05:31;;;;;;;5.72;4.68;;;;;;;;;;5020999;28;20018;-78
2024/02/17 14:07:58;;;;;;;4.90;4.40;;;;;;;;;;5021704;28;20018;-77
2024/02/17 14:10:24;;;;;;;5.85;4.43;;;;;;;;;;5026798;28;20053;-77
2024/02/17 14:12:50;;;;;;;7.28;5.85;;;;;;;;;;5039773;28;20018;-77
2024/02/17 14:15:19;;;;;;;7.13;5.15;;;;;;;;;;5033276;28;20006;-79
2024/02/17 14:17:45;;;;;;;7.78;5.47;;;;;;;;;;5039173;28;20017;-77
2024/02/17 14:20:11;;;;;;;8.23;5.55;;;;;;;;;;5039304;28;20025;-78
2024/02/17 14:22:37;;;;;;;5.25;4.10;;;;;;;;;;5039035;28;20098;-76
2024/02/17 14:25:03;;;;;;;5.28;4.13;;;;;;;;;;5061146;28;20041;-77
2024/02/17 14:27:31;;;;;;;4.72;3.45;;;;;;;;;;5044252;28;20025;-77
2024/02/17 14:29:57;;;;;;;3.10;2.80;;;;;;;;;;5040233;28;20041;-77
2024/02/17 14:32:23;;;;;;;4.65;2.88;;;;;;;;;;5052430;28;20116;-77
2024/02/17 14:34:49;;;;;;;5.82;4.97;;;;;;;;;;5027719;28;20036;-78
2024/02/17 14:37:18;;;;;;;7.25;5.75;;;;;;;;;;5025487;28;20022;-78
2024/02/17 14:39:44;;;;;;;6.13;5.15;;;;;;;;;;5040512;28;20029;-78
2024/02/17 14:42:11;;;;;;;8.20;6.55;;;;;;;;;;5032576;28;20060;-79